Airfield :
LOGIN :

Register | Disclaimer

   EN    FR    IT 

 










Legend :    VFR   Marginal VFR   IFR   Intensive IFR   Very Intensive IFR
Visi :
Ceiling :
>= 8 km
>= 3000ft
5 to 8 km
1000 to 3000 ft
1500m to 5 km
500 to 1000 ft
800 to 1500m
200 to 500 ft
< 800m
< 200 ft
Symbols :   Thunderstorms  Fog  Heavy snow  Heavy precipitations  Wind > 20 kt
SIGMETs :     Misc.  Thunderstorms  Icing  Turbulence  Mountain Waves  Volcanic Ashes






- Airport Elevation : 412 ft
- IATA code : ORE


LFOJ - Orleans

CURRENT METAR :
  • 090800Z AUTO 04012KT CAVOK 22/13 Q1024 NOSIG

EXPIRED METARs :
  • 090730Z AUTO 04012KT CAVOK 21/12 Q1024 NOSIG
  • 090700Z AUTO 04012KT CAVOK 20/12 Q1023 NOSIG
  • 090630Z AUTO 02009KT CAVOK 18/12 Q1023 NOSIG
  • 090600Z AUTO 02009KT CAVOK 17/12 Q1023 NOSIG
  • 090530Z AUTO 01008KT CAVOK 16/12 Q1023 NOSIG

TAF TAF LFOJ
Valid from the 09 at 03:00 until the 10 at 03:00 UTC


090200Z 0903/1003 02010KT CAVOK TX31/0915Z TN14/0903Z



MET'MAP, your aeronautical weather chart ! - Copyright ORBIFLY December 2007 - Disclaimer

ORBIFLY MET'MAP TEAM :

Programming & Development : Alexandra Zaïnal
Original concept : Baudouin d'Aumeries
Technical & hardware support : Manuel Goepfert
Assistance : Marc-Olivier Méhu




SOURCES & CREDITS :

   NOAA